Time;durP1;ratioP1;P1;durP2;ratioP2;P2;SDS_P1;SDS_P2;PMS_P1;PMS_P2;Temp;Humidity;BMP_temperature;BMP_pressure;BME280_temperature;BME280_humidity;BME280_pressure;Samples;Min_cycle;Max_cycle;Signal;HPM_P1;HPM_P2
2023/06/17 00:00:59;;;;;;;6.90;6.05;;;16.00;99.90;;;;;;5023717;28;20200;-75
2023/06/17 00:03:25;;;;;;;7.82;6.55;;;16.00;99.90;;;;;;5022377;28;20213;-74
2023/06/17 00:05:51;;;;;;;6.90;5.38;;;16.00;99.90;;;;;;5011551;28;20184;-75
2023/06/17 00:08:17;;;;;;;9.38;5.85;;;16.00;99.90;;;;;;5025573;28;20183;-74
2023/06/17 00:10:44;;;;;;;7.43;5.97;;;16.00;99.90;;;;;;5006373;28;20292;-72
2023/06/17 00:13:09;;;;;;;7.75;6.03;;;16.10;99.90;;;;;;5026320;28;20646;-73
2023/06/17 00:15:35;;;;;;;6.47;5.47;;;16.10;99.90;;;;;;5025009;28;20298;-73
2023/06/17 00:18:03;;;;;;;7.00;5.30;;;16.00;99.90;;;;;;5021396;28;20228;-73
2023/06/17 00:20:29;;;;;;;7.47;5.70;;;16.00;99.90;;;;;;5024974;28;20176;-74
2023/06/17 00:22:54;;;;;;;7.82;6.22;;;15.90;99.90;;;;;;5010338;28;20718;-73
2023/06/17 00:25:21;;;;;;;10.07;6.25;;;15.90;99.90;;;;;;5024994;28;20227;-74
2023/06/17 00:27:46;;;;;;;8.15;6.20;;;16.00;99.90;;;;;;5008112;28;20575;-74
2023/06/17 00:30:12;;;;;;;6.50;5.50;;;16.00;99.90;;;;;;5023164;28;20377;-74
2023/06/17 00:32:38;;;;;;;6.82;5.38;;;16.00;99.90;;;;;;5023066;28;20207;-73
2023/06/17 00:35:05;;;;;;;6.40;5.72;;;16.00;99.90;;;;;;5028890;28;20224;-73
2023/06/17 00:37:31;;;;;;;6.45;5.22;;;16.10;99.90;;;;;;5025352;28;20218;-74
2023/06/17 00:39:57;;;;;;;7.60;5.32;;;16.10;99.90;;;;;;5043099;28;20231;-74
2023/06/17 00:42:22;;;;;;;6.95;6.22;;;16.10;99.90;;;;;;5045821;28;20220;-73
2023/06/17 00:44:48;;;;;;;6.97;6.25;;;16.00;99.90;;;;;;5043249;28;20195;-73
2023/06/17 00:47:15;;;;;;;6.07;5.50;;;16.00;99.90;;;;;;5047646;28;20188;-74
2023/06/17 00:49:42;;;;;;;7.72;6.15;;;16.00;99.90;;;;;;5027739;28;20315;-73
2023/06/17 00:52:10;;;;;;;7.97;6.22;;;16.00;99.90;;;;;;5045753;28;20203;-73
2023/06/17 00:54:40;;;;;;;8.80;5.95;;;16.00;99.90;;;;;;5046716;28;20712;-73
2023/06/17 00:57:13;;;;;;;6.65;5.95;;;15.90;99.90;;;;;;5028058;28;20223;-74
2023/06/17 00:59:41;;;;;;;6.80;5.32;;;16.00;99.90;;;;;;5027514;28;20215;-74
2023/06/17 01:02:09;;;;;;;6.75;5.97;;;16.00;99.90;;;;;;5050139;28;20218;-70
2023/06/17 01:04:37;;;;;;;6.88;5.90;;;15.90;99.90;;;;;;5049051;28;20203;-73
2023/06/17 01:07:23;;;;;;;7.00;6.13;;;15.90;99.90;;;;;;5025980;28;20266;-74
2023/06/17 01:10:11;;;;;;;7.13;6.43;;;15.90;99.90;;;;;;5028957;28;20283;-73
2023/06/17 01:12:37;;;;;;;7.75;5.60;;;15.80;99.90;;;;;;5048562;28;20298;-73
2023/06/17 01:15:03;;;;;;;8.80;6.18;;;15.80;99.90;;;;;;5040032;28;20713;-74
2023/06/17 01:17:29;;;;;;;8.23;6.13;;;15.70;99.90;;;;;;5044519;28;20244;-74
2023/06/17 01:19:56;;;;;;;7.15;5.93;;;15.80;99.90;;;;;;5042384;28;20200;-73
2023/06/17 01:22:23;;;;;;;7.50;5.88;;;15.90;99.90;;;;;;5027446;28;20581;-73
2023/06/17 01:24:49;;;;;;;6.30;5.40;;;15.90;99.90;;;;;;5024431;28;20263;-74
2023/06/17 01:27:15;;;;;;;7.00;5.68;;;15.90;99.90;;;;;;5027199;28;20586;-74
2023/06/17 01:29:41;;;;;;;6.60;5.30;;;15.90;99.90;;;;;;5044144;28;20184;-73
2023/06/17 01:32:06;;;;;;;6.20;5.60;;;15.90;99.90;;;;;;5043664;28;20207;-72
2023/06/17 01:34:36;;;;;;;7.75;6.35;;;15.90;99.90;;;;;;5043621;28;20214;-73
2023/06/17 01:37:09;;;;;;;7.38;6.35;;;15.90;99.90;;;;;;5041131;28;20728;-74
2023/06/17 01:39:37;;;;;;;8.20;6.90;;;15.90;99.90;;;;;;5045127;28;20783;-73
2023/06/17 01:42:07;;;;;;;9.15;6.60;;;16.00;99.90;;;;;;5046113;28;20257;-73
2023/06/17 01:44:33;;;;;;;8.10;6.47;;;16.00;99.90;;;;;;5023726;28;20655;-73
2023/06/17 01:46:59;;;;;;;7.25;6.28;;;16.00;99.90;;;;;;5042978;28;20218;-73
2023/06/17 01:49:25;;;;;;;7.60;6.25;;;16.00;99.90;;;;;;5050673;28;20212;-74
2023/06/17 01:51:50;;;;;;;8.88;6.50;;;16.00;99.90;;;;;;5043861;28;20624;-74
2023/06/17 01:54:16;;;;;;;7.07;6.38;;;15.90;99.90;;;;;;5032442;28;20261;-73
2023/06/17 01:56:42;;;;;;;9.55;7.18;;;15.90;99.90;;;;;;5031866;28;20175;-72
2023/06/17 01:59:07;;;;;;;7.35;6.65;;;15.90;99.90;;;;;;5030061;28;20200;-74
2023/06/17 02:01:33;;;;;;;10.07;7.35;;;15.90;99.90;;;;;;5027875;28;20216;-73
2023/06/17 02:03:59;;;;;;;9.57;7.13;;;15.90;99.90;;;;;;5028229;28;20211;-73
2023/06/17 02:06:24;;;;;;;9.48;7.60;;;15.90;99.90;;;;;;5013222;28;20295;-73
2023/06/17 02:08:50;;;;;;;9.68;7.00;;;15.80;99.90;;;;;;5029852;28;20172;-74
2023/06/17 02:11:16;;;;;;;8.75;7.85;;;15.80;99.90;;;;;;5027390;28;20189;-74
2023/06/17 02:13:42;;;;;;;8.07;6.88;;;15.80;99.90;;;;;;5012764;28;20342;-73
2023/06/17 02:16:07;;;;;;;9.90;7.93;;;15.80;99.90;;;;;;5006021;28;21031;-73
2023/06/17 02:18:33;;;;;;;8.02;7.03;;;15.80;99.90;;;;;;5020673;28;20220;-73
2023/06/17 02:21:01;;;;;;;9.10;7.22;;;15.80;99.90;;;;;;5024237;28;20727;-74
2023/06/17 02:23:27;;;;;;;8.43;7.07;;;15.80;99.90;;;;;;5028694;28;20306;-74
2023/06/17 02:25:52;;;;;;;8.88;7.70;;;15.90;99.90;;;;;;5031240;28;20797;-74
2023/06/17 02:28:18;;;;;;;9.40;7.43;;;15.80;99.90;;;;;;5012838;28;20299;-74
2023/06/17 02:30:44;;;;;;;8.77;7.25;;;15.90;99.90;;;;;;5027523;28;20212;-73
2023/06/17 02:33:12;;;;;;;8.35;7.55;;;15.90;99.90;;;;;;5007942;28;20291;-74
2023/06/17 02:35:38;;;;;;;8.40;6.93;;;15.90;99.90;;;;;;5022087;28;20235;-74
2023/06/17 02:38:04;;;;;;;9.25;7.75;;;15.80;99.90;;;;;;5003663;28;20211;-74
2023/06/17 02:40:30;;;;;;;11.30;7.50;;;15.80;99.90;;;;;;5004193;28;20215;-74
2023/06/17 02:42:55;;;;;;;8.07;7.28;;;15.90;99.90;;;;;;5019206;28;20291;-74
2023/06/17 02:45:21;;;;;;;8.38;7.57;;;15.80;99.90;;;;;;5025349;28;20296;-73
2023/06/17 02:47:47;;;;;;;11.90;7.55;;;15.80;99.90;;;;;;5025766;28;20211;-74
2023/06/17 02:50:13;;;;;;;9.90;7.50;;;15.90;99.90;;;;;;5007377;28;20184;-73
2023/06/17 02:52:38;;;;;;;12.18;8.10;;;15.90;99.90;;;;;;5020856;28;20231;-73
2023/06/17 02:55:05;;;;;;;7.95;7.15;;;15.90;99.90;;;;;;5007465;28;20219;-73
2023/06/17 02:57:31;;;;;;;11.50;7.90;;;15.90;99.90;;;;;;5021868;28;20590;-73
2023/06/17 02:59:57;;;;;;;10.30;8.27;;;15.80;99.90;;;;;;5019146;28;20283;-73
2023/06/17 03:02:22;;;;;;;12.85;8.55;;;15.80;99.90;;;;;;5027579;28;20203;-73
2023/06/17 03:04:48;;;;;;;9.07;8.18;;;15.80;99.90;;;;;;5026741;28;20216;-73
2023/06/17 03:07:15;;;;;;;11.45;8.60;;;15.80;99.90;;;;;;5019968;28;20265;-73
2023/06/17 03:09:41;;;;;;;9.75;8.02;;;15.90;99.90;;;;;;5033643;28;20208;-71
2023/06/17 03:12:07;;;;;;;11.20;8.77;;;15.80;99.90;;;;;;5044864;28;20268;-73
2023/06/17 03:14:33;;;;;;;9.20;8.38;;;15.80;99.90;;;;;;5042931;28;20176;-73
2023/06/17 03:16:59;;;;;;;9.38;8.40;;;15.70;99.90;;;;;;5045480;28;20199;-73
2023/06/17 03:19:25;;;;;;;10.23;8.23;;;15.70;99.90;;;;;;5045671;28;20318;-74
2023/06/17 03:21:51;;;;;;;9.13;8.07;;;15.70;99.90;;;;;;5045127;28;20297;-70
2023/06/17 03:24:17;;;;;;;11.80;8.60;;;15.80;99.90;;;;;;5034060;23;20236;-79
2023/06/17 03:26:44;;;;;;;10.73;8.68;;;15.80;99.90;;;;;;5020482;28;20538;-79
2023/06/17 03:29:09;;;;;;;11.38;8.40;;;15.80;99.90;;;;;;5033633;28;20165;-80
2023/06/17 03:31:35;;;;;;;11.20;9.20;;;15.80;99.90;;;;;;5051415;28;20204;-77
2023/06/17 03:34:01;;;;;;;10.88;9.48;;;15.80;99.90;;;;;;5046452;28;20231;-80
2023/06/17 03:36:29;;;;;;;11.77;9.50;;;15.80;99.90;;;;;;5047857;28;20235;-81
2023/06/17 03:38:58;;;;;;;10.38;9.27;;;15.80;99.90;;;;;;5048155;28;20236;-79
2023/06/17 03:41:24;;;;;;;10.98;9.52;;;15.90;99.90;;;;;;5049438;28;20184;-80
2023/06/17 03:43:50;;;;;;;11.10;9.40;;;16.00;99.90;;;;;;5044816;28;20208;-80
2023/06/17 03:46:16;;;;;;;12.23;10.32;;;15.90;99.90;;;;;;5048077;28;20215;-80
2023/06/17 03:48:42;;;;;;;14.00;10.15;;;16.00;99.90;;;;;;5036928;28;20601;-79
2023/06/17 03:51:08;;;;;;;10.68;9.57;;;15.90;99.90;;;;;;5037720;28;20213;-80
2023/06/17 03:53:33;;;;;;;10.90;9.68;;;15.90;99.90;;;;;;5040071;28;20192;-79
2023/06/17 03:55:59;;;;;;;13.07;10.77;;;16.00;99.90;;;;;;5040013;28;20269;-79
2023/06/17 03:58:25;;;;;;;12.37;10.97;;;15.90;99.90;;;;;;5042477;28;20430;-80
2023/06/17 04:00:51;;;;;;;11.50;10.25;;;16.00;99.90;;;;;;5042706;28;20239;-80
2023/06/17 04:03:24;;;;;;;12.00;10.52;;;16.00;99.90;;;;;;5039606;28;20213;-79
2023/06/17 04:05:51;;;;;;;12.15;10.00;;;16.10;99.90;;;;;;5042622;28;20256;-79
2023/06/17 04:08:18;;;;;;;13.18;10.80;;;16.10;99.90;;;;;;5046844;28;20561;-80
2023/06/17 04:10:44;;;;;;;11.43;10.18;;;16.10;99.90;;;;;;5038503;28;20592;-80
2023/06/17 04:13:09;;;;;;;11.00;9.90;;;16.20;99.90;;;;;;5041013;28;20204;-80
2023/06/17 04:15:35;;;;;;;12.07;10.60;;;16.30;99.90;;;;;;5043904;28;20282;-80
2023/06/17 04:18:02;;;;;;;12.98;10.82;;;16.20;99.90;;;;;;5041055;28;20228;-80
2023/06/17 04:20:28;;;;;;;13.02;10.90;;;16.20;99.90;;;;;;5042997;28;20268;-80
2023/06/17 04:22:54;;;;;;;11.43;10.23;;;16.30;99.90;;;;;;5043389;28;20596;-79
2023/06/17 04:25:20;;;;;;;12.60;10.07;;;16.30;99.90;;;;;;5045455;28;20280;-79
2023/06/17 04:27:48;;;;;;;12.18;10.88;;;16.30;99.90;;;;;;5037152;28;20239;-79
2023/06/17 04:30:16;;;;;;;11.95;10.65;;;16.40;99.90;;;;;;5038318;28;20744;-80
2023/06/17 04:32:44;;;;;;;11.65;10.43;;;16.40;99.90;;;;;;5037730;28;20181;-78
2023/06/17 04:35:10;;;;;;;13.55;11.60;;;16.40;99.90;;;;;;5039796;28;20201;-80
2023/06/17 04:37:37;;;;;;;13.98;12.32;;;16.40;99.90;;;;;;5043482;28;20212;-80
2023/06/17 04:40:06;;;;;;;13.02;11.63;;;16.50;99.90;;;;;;5042658;28;20625;-80
2023/06/17 04:42:33;;;;;;;13.65;11.77;;;16.50;99.90;;;;;;5038312;28;20231;-80
2023/06/17 04:44:59;;;;;;;13.25;11.80;;;16.50;99.90;;;;;;5043475;28;20212;-80
2023/06/17 04:47:25;;;;;;;13.77;11.38;;;16.70;99.90;;;;;;5040634;28;20257;-80
2023/06/17 04:49:51;;;;;;;12.18;10.85;;;16.80;99.90;;;;;;5045458;28;20208;-79
2023/06/17 04:52:20;;;;;;;13.48;12.02;;;17.20;99.90;;;;;;5047937;28;20242;-79
2023/06/17 04:54:46;;;;;;;13.77;11.75;;;17.50;99.90;;;;;;5042010;28;20214;-80
2023/06/17 04:57:13;;;;;;;14.05;11.38;;;17.50;99.90;;;;;;5041576;28;20205;-80
2023/06/17 04:59:39;;;;;;;15.95;11.93;;;17.50;99.90;;;;;;5045176;28;20204;-79
2023/06/17 05:02:05;;;;;;;15.07;13.00;;;17.70;99.90;;;;;;5049243;28;20190;-80
2023/06/17 05:04:30;;;;;;;17.27;13.73;;;17.70;99.90;;;;;;5047905;28;20637;-80
2023/06/17 05:06:56;;;;;;;16.25;13.85;;;17.90;99.90;;;;;;5043961;28;20205;-79
2023/06/17 05:09:22;;;;;;;16.25;14.05;;;18.00;99.90;;;;;;5044780;28;20208;-81
2023/06/17 05:11:48;;;;;;;14.88;13.27;;;18.10;99.90;;;;;;5042153;28;20177;-79
2023/06/17 05:14:14;;;;;;;16.20;14.32;;;18.30;99.90;;;;;;5043138;28;20207;-80
2023/06/17 05:16:40;;;;;;;17.23;13.10;;;18.30;99.90;;;;;;5049890;28;20201;-78
2023/06/17 05:19:05;;;;;;;18.42;13.02;;;18.40;99.90;;;;;;5054930;28;20230;-78
2023/06/17 05:21:31;;;;;;;17.88;13.68;;;18.70;99.90;;;;;;5049708;28;20208;-78
2023/06/17 05:23:57;;;;;;;17.95;14.32;;;19.00;99.90;;;;;;5052835;28;20204;-78
2023/06/17 05:26:22;;;;;;;15.80;12.95;;;19.10;99.90;;;;;;5046177;28;20196;-79
2023/06/17 05:28:48;;;;;;;14.35;12.77;;;19.30;99.90;;;;;;5054112;28;20200;-79
2023/06/17 05:31:14;;;;;;;15.15;12.38;;;19.30;99.90;;;;;;5052201;28;20188;-80
2023/06/17 05:33:39;;;;;;;17.42;13.25;;;19.30;99.90;;;;;;5052338;28;20272;-78
2023/06/17 05:36:05;;;;;;;14.20;12.68;;;19.40;99.90;;;;;;5044434;28;20284;-81
2023/06/17 05:38:31;;;;;;;16.33;14.18;;;19.10;99.90;;;;;;5042103;28;20200;-80
2023/06/17 05:40:56;;;;;;;16.27;13.10;;;19.10;99.90;;;;;;5036443;28;20728;-81
2023/06/17 05:43:26;;;;;;;17.58;12.30;;;19.20;99.90;;;;;;5029942;28;20220;-80
2023/06/17 05:45:52;;;;;;;14.52;12.27;;;19.10;99.90;;;;;;5034331;28;20227;-79
2023/06/17 05:48:17;;;;;;;13.98;11.35;;;19.40;99.90;;;;;;5045524;28;20212;-81
2023/06/17 05:50:43;;;;;;;12.20;10.88;;;19.50;99.90;;;;;;5033723;28;20185;-80
2023/06/17 05:53:08;;;;;;;15.60;12.30;;;19.60;99.90;;;;;;5036289;28;20176;-81
2023/06/17 05:55:34;;;;;;;12.05;10.80;;;19.50;99.90;;;;;;5030324;28;20209;-80
2023/06/17 05:58:00;;;;;;;12.60;11.25;;;19.60;99.90;;;;;;5040305;28;20857;-80
2023/06/17 06:00:25;;;;;;;13.82;11.23;;;19.60;99.90;;;;;;5039656;28;20295;-81
2023/06/17 06:02:51;;;;;;;11.95;10.73;;;19.70;99.90;;;;;;5032103;28;20243;-81
2023/06/17 06:05:17;;;;;;;12.50;11.27;;;19.70;99.90;;;;;;5037942;28;20193;-80
2023/06/17 06:07:46;;;;;;;11.93;10.73;;;19.50;99.90;;;;;;5038336;28;20216;-77
2023/06/17 06:10:12;;;;;;;12.85;10.48;;;19.30;99.90;;;;;;5039530;28;20284;-80
2023/06/17 06:12:39;;;;;;;11.93;10.73;;;19.30;99.90;;;;;;5034616;28;20754;-80
2023/06/17 06:15:06;;;;;;;12.13;10.93;;;19.30;99.90;;;;;;5036151;28;20336;-81
2023/06/17 06:17:32;;;;;;;14.77;11.55;;;19.20;99.90;;;;;;5037706;28;20667;-80
2023/06/17 06:19:57;;;;;;;15.10;11.80;;;19.10;99.90;;;;;;5040559;28;20219;-81
2023/06/17 06:22:23;;;;;;;15.57;11.07;;;18.90;99.90;;;;;;5038188;28;20205;-80
2023/06/17 06:24:49;;;;;;;14.05;12.30;;;19.00;99.90;;;;;;5036587;28;20215;-80
2023/06/17 06:27:15;;;;;;;15.68;12.48;;;19.00;99.90;;;;;;5037136;28;20242;-81
2023/06/17 06:29:40;;;;;;;20.92;17.90;;;19.10;99.90;;;;;;5033697;28;20177;-79
2023/06/17 06:32:07;;;;;;;15.20;12.60;;;19.20;99.90;;;;;;5031914;28;20245;-80
2023/06/17 06:34:33;;;;;;;16.30;13.05;;;19.20;99.90;;;;;;5036157;28;20224;-80
2023/06/17 06:36:58;;;;;;;15.20;12.75;;;19.10;99.90;;;;;;5033965;28;20231;-81
2023/06/17 06:39:25;;;;;;;14.10;12.40;;;18.90;99.90;;;;;;5034263;28;20247;-80
2023/06/17 06:41:51;;;;;;;13.95;12.40;;;18.90;99.90;;;;;;5038600;28;20179;-80
2023/06/17 06:44:17;;;;;;;14.35;12.90;;;19.00;99.90;;;;;;5039204;28;20581;-80
2023/06/17 06:46:43;;;;;;;16.15;13.02;;;18.90;99.90;;;;;;5029100;28;20217;-80
2023/06/17 06:49:08;;;;;;;14.85;12.55;;;19.20;99.90;;;;;;5021889;28;20205;-80
2023/06/17 06:51:34;;;;;;;17.02;14.00;;;19.50;99.90;;;;;;5027302;28;20208;-79
2023/06/17 06:54:00;;;;;;;14.77;13.27;;;19.60;99.90;;;;;;5027167;28;20211;-79
2023/06/17 06:56:26;;;;;;;14.32;12.82;;;19.50;99.90;;;;;;5030670;28;20211;-80
2023/06/17 06:58:52;;;;;;;16.55;13.10;;;19.70;99.90;;;;;;5034295;28;20295;-80
2023/06/17 07:01:18;;;;;;;14.75;13.18;;;19.70;99.90;;;;;;5033879;28;20633;-80
2023/06/17 07:03:44;;;;;;;15.00;13.20;;;19.80;99.90;;;;;;5037451;28;20216;-80
2023/06/17 07:06:09;;;;;;;15.55;12.60;;;19.90;99.90;;;;;;5038595;28;20262;-81
2023/06/17 07:08:35;;;;;;;15.20;12.43;;;19.70;99.90;;;;;;5042742;28;20192;-80
2023/06/17 07:11:01;;;;;;;16.50;14.43;;;19.80;99.90;;;;;;5037771;28;20215;-80
2023/06/17 07:13:27;;;;;;;13.57;12.20;;;19.70;99.90;;;;;;5042505;28;20293;-80
2023/06/17 07:15:52;;;;;;;14.70;13.20;;;19.90;99.90;;;;;;5039066;28;20223;-79
2023/06/17 07:18:18;;;;;;;13.43;12.00;;;20.10;99.90;;;;;;5028240;28;20216;-80
2023/06/17 07:20:44;;;;;;;14.07;12.68;;;20.30;99.90;;;;;;5032236;28;20184;-80
2023/06/17 07:23:09;;;;;;;15.10;12.55;;;20.50;99.90;;;;;;5033706;28;20172;-79
2023/06/17 07:25:36;;;;;;;14.50;12.55;;;20.60;99.90;;;;;;5030622;28;20244;-80
2023/06/17 07:28:02;;;;;;;14.75;13.25;;;20.60;99.90;;;;;;5036903;28;20295;-81
2023/06/17 07:30:29;;;;;;;15.32;13.75;;;20.60;99.90;;;;;;5027246;28;20232;-80
2023/06/17 07:32:55;;;;;;;15.88;13.35;;;20.40;99.90;;;;;;5024801;28;20181;-79
2023/06/17 07:35:20;;;;;;;14.15;12.80;;;20.60;99.90;;;;;;5029477;28;20270;-79
2023/06/17 07:37:46;;;;;;;15.18;13.38;;;20.60;99.90;;;;;;5030905;28;20208;-80
2023/06/17 07:40:13;;;;;;;15.00;13.35;;;20.70;99.90;;;;;;5022275;28;20209;-80
2023/06/17 07:42:38;;;;;;;13.75;12.18;;;20.80;99.90;;;;;;5027607;28;20220;-80
2023/06/17 07:45:07;;;;;;;13.43;12.05;;;21.30;99.90;;;;;;5030373;28;20330;-81
2023/06/17 07:47:33;;;;;;;13.15;11.32;;;21.60;99.90;;;;;;5032800;28;20181;-80
2023/06/17 07:49:58;;;;;;;13.27;11.60;;;21.90;99.90;;;;;;5035744;28;20212;-81
2023/06/17 07:52:24;;;;;;;12.27;11.07;;;22.10;99.90;;;;;;5033035;28;20219;-81
2023/06/17 07:54:51;;;;;;;16.23;12.32;;;21.80;99.90;;;;;;5040820;28;20223;-77
2023/06/17 07:57:17;;;;;;;14.02;11.98;;;21.60;99.90;;;;;;5041998;28;20694;-81
2023/06/17 07:59:43;;;;;;;13.98;12.23;;;21.90;99.90;;;;;;5043575;28;20211;-80
2023/06/17 08:02:09;;;;;;;13.13;11.77;;;22.20;99.90;;;;;;5037710;28;20169;-80
2023/06/17 08:04:34;;;;;;;13.50;11.60;;;22.40;99.90;;;;;;5044007;28;20209;-80
2023/06/17 08:07:01;;;;;;;13.95;12.55;;;23.50;99.90;;;;;;5045422;28;20215;-80
2023/06/17 08:09:26;;;;;;;13.57;11.90;;;24.20;99.90;;;;;;5045615;28;20245;-81
2023/06/17 08:11:52;;;;;;;12.90;11.55;;;23.90;99.90;;;;;;5049699;28;20252;-79
2023/06/17 08:14:18;;;;;;;14.20;12.25;;;24.70;99.90;;;;;;5046161;28;20203;-81
2023/06/17 08:16:44;;;;;;;12.45;11.25;;;25.30;99.90;;;;;;5047832;28;20209;-80
2023/06/17 08:19:10;;;;;;;13.52;12.10;;;25.30;99.90;;;;;;5042190;28;20212;-80
2023/06/17 08:21:37;;;;;;;13.77;12.38;;;24.80;99.90;;;;;;5043318;28;20235;-81
2023/06/17 08:24:22;;;;;;;15.77;14.13;;;24.50;99.90;;;;;;5038604;28;20216;-80
2023/06/17 08:26:49;;;;;;;14.15;12.52;;;24.00;99.90;;;;;;5045004;28;20453;-80
2023/06/17 08:29:16;;;;;;;15.10;13.60;;;24.00;99.90;;;;;;5044134;28;20181;-79
2023/06/17 08:31:43;;;;;;;15.35;13.27;;;23.30;99.90;;;;;;5040312;28;20205;-78
2023/06/17 08:34:09;;;;;;;14.63;13.15;;;22.70;99.90;;;;;;5040342;28;20238;-81
2023/06/17 08:36:37;;;;;;;15.00;13.43;;;22.30;99.90;;;;;;5040947;28;20212;-81
2023/06/17 08:39:03;;;;;;;17.73;15.48;;;22.30;99.90;;;;;;5051095;28;20220;-80
2023/06/17 08:41:29;;;;;;;17.33;15.52;;;22.00;99.90;;;;;;5040911;28;20196;-80
2023/06/17 08:44:01;;;;;;;14.50;12.35;;;21.90;99.90;;;;;;5046457;28;20714;-83
2023/06/17 08:46:27;;;;;;;17.42;12.85;;;22.20;99.90;;;;;;5039246;28;20644;-80
2023/06/17 08:48:53;;;;;;;14.82;13.25;;;22.60;99.90;;;;;;5040111;28;20208;-77
2023/06/17 08:51:20;;;;;;;15.40;13.30;;;23.20;99.90;;;;;;5044025;28;20268;-81
2023/06/17 08:53:47;;;;;;;18.70;13.50;;;23.50;99.90;;;;;;5045552;28;20200;-81
2023/06/17 08:56:13;;;;;;;13.05;11.50;;;23.50;99.90;;;;;;5039473;28;20838;-81
2023/06/17 08:58:39;;;;;;;13.00;11.68;;;23.60;99.90;;;;;;5040799;28;20221;-81
2023/06/17 09:01:08;;;;;;;14.85;12.88;;;23.80;99.90;;;;;;5036675;28;20236;-81
2023/06/17 09:03:38;;;;;;;14.57;12.90;;;24.00;99.90;;;;;;5038465;28;20224;-81
2023/06/17 09:06:20;;;;;;;16.45;13.75;;;23.70;99.90;;;;;;5034275;28;20252;-80
2023/06/17 09:08:47;;;;;;;13.70;12.30;;;23.30;99.90;;;;;;5039080;28;20192;-81
2023/06/17 09:11:13;;;;;;;14.63;12.38;;;22.80;99.90;;;;;;5038744;28;20319;-81
2023/06/17 09:13:39;;;;;;;12.00;10.73;;;22.90;99.90;;;;;;5038932;28;20208;-81
2023/06/17 09:16:05;;;;;;;13.32;11.25;;;23.10;99.90;;;;;;5037757;28;20577;-81
2023/06/17 09:18:34;;;;;;;13.38;11.45;;;23.10;99.90;;;;;;5043682;28;20220;-80
2023/06/17 09:21:02;;;;;;;14.00;12.13;;;23.20;99.90;;;;;;5043039;28;20236;-81
2023/06/17 09:23:28;;;;;;;12.75;11.50;;;22.90;99.90;;;;;;5044476;28;20168;-81
2023/06/17 09:26:02;;;;;;;13.23;11.75;;;22.90;99.90;;;;;;5043787;28;20218;-81
2023/06/17 09:28:27;;;;;;;12.52;11.23;;;23.00;99.90;;;;;;5045006;28;20235;-81
2023/06/17 09:30:56;;;;;;;14.15;9.90;;;23.20;99.90;;;;;;5046063;28;20788;-81
2023/06/17 09:33:23;;;;;;;17.73;15.82;;;23.50;99.90;;;;;;5034508;28;20223;-81
2023/06/17 09:36:05;;;;;;;14.55;11.95;;;23.30;99.90;;;;;;5032824;28;20178;-82
2023/06/17 09:38:31;;;;;;;13.40;11.68;;;23.30;99.90;;;;;;5039642;28;20192;-82
2023/06/17 09:41:00;;;;;;;12.50;10.82;;;23.10;99.90;;;;;;5035222;28;20211;-80
2023/06/17 09:43:27;;;;;;;12.40;11.07;;;22.70;99.90;;;;;;5035657;28;20208;-82
2023/06/17 09:46:03;;;;;;;13.13;11.00;;;22.40;99.90;;;;;;5036266;28;20209;-81
2023/06/17 09:48:32;;;;;;;12.20;11.00;;;22.00;99.90;;;;;;5050410;28;20205;-81
2023/06/17 09:50:59;;;;;;;11.80;10.70;;;21.70;99.90;;;;;;5022422;28;20221;-80
2023/06/17 09:53:29;;;;;;;13.02;11.73;;;21.50;99.90;;;;;;5026338;28;20173;-81
2023/06/17 09:55:57;;;;;;;12.98;11.63;;;21.10;99.90;;;;;;5024940;28;20211;-80
2023/06/17 09:58:29;;;;;;;13.07;11.27;;;21.20;99.90;;;;;;5026391;28;20215;-82
2023/06/17 10:01:00;;;;;;;14.45;11.43;;;21.20;99.90;;;;;;5032501;28;20215;-81
2023/06/17 10:03:26;;;;;;;13.27;11.95;;;21.40;99.90;;;;;;5034908;28;20228;-80
2023/06/17 10:06:19;;;;;;;24.13;21.60;;;21.70;99.90;;;;;;5031944;28;20211;-81
2023/06/17 10:08:47;;;;;;;13.57;11.98;;;21.80;99.90;;;;;;5053028;28;20180;-80
2023/06/17 10:11:17;;;;;;;13.45;12.05;;;21.70;99.90;;;;;;5031395;28;20199;-81
2023/06/17 10:13:49;;;;;;;13.57;12.02;;;21.50;99.90;;;;;;5037677;28;20215;-81
2023/06/17 10:16:18;;;;;;;13.30;11.55;;;21.10;99.90;;;;;;5036162;28;20215;-81
2023/06/17 10:18:48;;;;;;;12.85;11.52;;;21.10;99.90;;;;;;5038758;28;20567;-81
2023/06/17 10:21:15;;;;;;;14.20;12.77;;;21.20;99.90;;;;;;5033090;28;20208;-81
2023/06/17 10:23:42;;;;;;;13.13;11.38;;;21.00;99.90;;;;;;5033768;28;20686;-81
2023/06/17 10:26:11;;;;;;;14.93;13.32;;;21.20;99.90;;;;;;5033813;28;20172;-81
2023/06/17 10:29:01;;;;;;;15.27;12.00;;;21.40;99.90;;;;;;5033357;28;20212;-81
2023/06/17 10:31:30;;;;;;;13.10;11.85;;;21.60;99.90;;;;;;5036063;28;20231;-81
2023/06/17 10:33:57;;;;;;;12.50;11.25;;;21.60;99.90;;;;;;5036141;28;20212;-81
2023/06/17 10:36:26;;;;;;;12.95;11.00;;;21.70;99.90;;;;;;5041966;28;20209;-81
2023/06/17 10:39:13;;;;;;;12.32;11.13;;;21.50;99.90;;;;;;5044342;28;20203;-81
2023/06/17 10:41:38;;;;;;;11.93;9.60;;;21.70;99.90;;;;;;5040070;28;20177;-81
2023/06/17 10:44:27;;;;;;;12.95;9.10;;;21.90;99.90;;;;;;5035929;28;20208;-81
2023/06/17 10:46:53;;;;;;;11.35;10.25;;;21.90;99.90;;;;;;5032959;28;20219;-82
2023/06/17 10:49:19;;;;;;;12.05;10.85;;;22.40;99.90;;;;;;5043110;28;20268;-81
2023/06/17 10:51:46;;;;;;;11.75;10.63;;;22.20;99.90;;;;;;5033642;28;20255;-81
2023/06/17 10:54:12;;;;;;;10.60;9.52;;;22.30;99.90;;;;;;5024900;28;20212;-82
2023/06/17 10:56:53;;;;;;;10.70;8.98;;;22.90;99.90;;;;;;5044743;28;20657;-81
2023/06/17 10:59:31;;;;;;;10.10;9.10;;;23.70;99.90;;;;;;5034596;28;20625;-82
2023/06/17 11:02:02;;;;;;;13.45;10.10;;;24.10;99.90;;;;;;5036313;28;20239;-82
2023/06/17 11:04:31;;;;;;;9.70;8.70;;;24.20;99.90;;;;;;5037720;28;20227;-82
2023/06/17 11:07:04;;;;;;;12.60;11.35;;;24.40;99.90;;;;;;5036501;28;20207;-82
2023/06/17 11:09:32;;;;;;;10.63;9.50;;;23.90;99.90;;;;;;5036085;28;20204;-82
2023/06/17 11:12:00;;;;;;;12.77;10.85;;;23.40;99.90;;;;;;5037962;28;21485;-82
2023/06/17 11:14:27;;;;;;;10.25;9.30;;;23.60;99.90;;;;;;5035651;28;20187;-82
2023/06/17 11:16:53;;;;;;;9.15;8.35;;;23.90;99.90;;;;;;5035334;28;20212;-81
2023/06/17 11:19:19;;;;;;;9.57;8.45;;;24.10;99.90;;;;;;5036884;28;20212;-82
2023/06/17 11:21:45;;;;;;;9.20;8.35;;;24.10;99.90;;;;;;5036105;28;20205;-81
2023/06/17 11:24:11;;;;;;;11.38;8.68;;;24.20;99.90;;;;;;5037419;28;20231;-81
2023/06/17 11:26:37;;;;;;;13.23;11.90;;;23.70;99.90;;;;;;5032554;28;20173;-81
2023/06/17 11:29:06;;;;;;;9.65;8.70;;;23.50;99.90;;;;;;5035495;28;20220;-80
2023/06/17 11:31:36;;;;;;;8.80;7.90;;;23.10;99.90;;;;;;5034594;28;20699;-82
2023/06/17 11:34:02;;;;;;;10.68;8.80;;;22.70;99.90;;;;;;5034430;28;20590;-81
2023/06/17 11:36:28;;;;;;;8.88;7.95;;;22.30;99.90;;;;;;5039954;28;20203;-82
2023/06/17 11:38:57;;;;;;;7.43;6.72;;;21.80;99.90;;;;;;5031842;28;20272;-82
2023/06/17 11:41:23;;;;;;;7.38;6.47;;;21.30;99.90;;;;;;5035173;28;20177;-81
2023/06/17 11:43:52;;;;;;;7.45;6.60;;;21.00;99.90;;;;;;5045226;28;20268;-81
2023/06/17 11:46:22;;;;;;;8.02;6.00;;;20.80;99.90;;;;;;5042893;28;20228;-81
2023/06/17 11:48:48;;;;;;;6.93;6.25;;;20.60;99.90;;;;;;5041272;28;20208;-82
2023/06/17 11:51:20;;;;;;;7.78;5.90;;;20.40;99.90;;;;;;5034658;28;20724;-82
2023/06/17 11:53:48;;;;;;;7.50;4.90;;;20.50;99.90;;;;;;5039990;28;20204;-81
2023/06/17 11:56:16;;;;;;;5.45;4.60;;;20.40;99.90;;;;;;5039162;28;20190;-81
2023/06/17 11:58:44;;;;;;;5.38;4.88;;;20.40;99.90;;;;;;5039419;28;20222;-82
2023/06/17 12:01:12;;;;;;;6.75;4.47;;;20.40;99.90;;;;;;5038145;28;20196;-81
2023/06/17 12:03:38;;;;;;;5.13;4.43;;;20.40;99.90;;;;;;5031652;28;20205;-82
2023/06/17 12:06:04;;;;;;;5.22;4.22;;;20.50;99.90;;;;;;5040653;28;20208;-82
2023/06/17 12:08:34;;;;;;;5.88;4.28;;;20.50;99.90;;;;;;5050338;28;20184;-81
2023/06/17 12:11:22;;;;;;;5.25;4.22;;;20.40;99.90;;;;;;5035825;28;20205;-82
2023/06/17 12:13:50;;;;;;;5.18;4.13;;;20.60;99.90;;;;;;5040692;28;20208;-82
2023/06/17 12:16:32;;;;;;;5.28;4.45;;;20.60;99.90;;;;;;5035655;28;20241;-82
2023/06/17 12:18:58;;;;;;;6.53;5.22;;;20.40;99.90;;;;;;5041050;28;20211;-80
2023/06/17 12:21:24;;;;;;;6.57;5.15;;;20.40;99.90;;;;;;5036345;28;20208;-81
2023/06/17 12:23:53;;;;;;;6.40;5.32;;;20.50;99.90;;;;;;5030813;28;20204;-82
2023/06/17 12:26:19;;;;;;;7.88;5.75;;;20.60;99.90;;;;;;5039072;28;20176;-81
2023/06/17 12:28:45;;;;;;;8.07;5.32;;;20.70;99.90;;;;;;5039905;28;20204;-81
2023/06/17 12:31:11;;;;;;;8.13;5.32;;;20.80;99.90;;;;;;5037025;28;20214;-82
2023/06/17 12:33:38;;;;;;;5.60;5.00;;;20.90;99.90;;;;;;5043637;28;20216;-82
2023/06/17 12:36:05;;;;;;;6.18;4.95;;;21.00;99.90;;;;;;5041797;28;20501;-82